Time;durP1;ratioP1;P1;durP2;ratioP2;P2;SDS_P1;SDS_P2;PMS_P1;PMS_P2;Temp;Humidity;BMP_temperature;BMP_pressure;BME280_temperature;BME280_humidity;BME280_pressure;Samples;Min_cycle;Max_cycle;Signal;HPM_P1;HPM_P2
2022/05/21 00:01:15;;;;;;;2.25;1.48;;;16.20;92.30;;;;;;5065864;28;20037;-72
2022/05/21 00:03:42;;;;;;;2.17;1.63;;;16.20;92.30;;;;;;5072366;28;20397;-72
2022/05/21 00:06:08;;;;;;;1.65;1.40;;;16.20;92.50;;;;;;5073736;28;20029;-73
2022/05/21 00:08:35;;;;;;;3.00;1.95;;;16.10;92.80;;;;;;5068470;28;20373;-73
2022/05/21 00:11:01;;;;;;;10.02;2.10;;;16.10;92.70;;;;;;5074247;28;20048;-72
2022/05/21 00:13:27;;;;;;;1.70;1.38;;;16.00;92.80;;;;;;5069539;28;20040;-73
2022/05/21 00:15:54;;;;;;;1.90;1.70;;;16.00;93.30;;;;;;5077641;28;20055;-73
2022/05/21 00:18:20;;;;;;;2.03;1.38;;;15.90;92.90;;;;;;5068230;28;20044;-72
2022/05/21 00:20:49;;;;;;;1.48;1.08;;;15.80;92.60;;;;;;5070492;28;20037;-73
2022/05/21 00:23:42;;;;;;;1.23;0.95;;;15.80;92.30;;;;;;5074264;28;20032;-72
2022/05/21 00:26:11;;;;;;;1.00;0.70;;;15.70;91.80;;;;;;4951866;28;20048;-73
2022/05/21 00:28:39;;;;;;;1.10;0.90;;;15.60;91.50;;;;;;5067897;28;20047;-73
2022/05/21 00:31:08;;;;;;;1.63;0.93;;;15.60;91.30;;;;;;5051999;28;20052;-72
2022/05/21 00:33:35;;;;;;;1.10;0.70;;;15.50;91.50;;;;;;5074614;28;20038;-71
2022/05/21 00:36:02;;;;;;;0.75;0.70;;;15.40;91.60;;;;;;5071049;28;20044;-72
2022/05/21 00:38:28;;;;;;;0.55;0.52;;;15.40;91.90;;;;;;5075782;28;20028;-71
2022/05/21 00:40:54;;;;;;;2.15;1.23;;;15.30;92.10;;;;;;5075519;28;20051;-71
2022/05/21 00:43:42;;;;;;;5.57;1.33;;;15.30;92.30;;;;;;5072328;28;20029;-71
2022/05/21 00:46:19;;;;;;;1.42;0.93;;;15.20;92.10;;;;;;5074760;28;20025;-71
2022/05/21 00:48:51;;;;;;;1.63;0.90;;;15.20;92.00;;;;;;5066781;28;20055;-71
2022/05/21 00:51:21;;;;;;;1.83;0.90;;;15.20;92.00;;;;;;5071313;28;20048;-71
2022/05/21 00:53:51;;;;;;;0.82;0.73;;;15.10;92.00;;;;;;5067633;28;20029;-73
2022/05/21 00:56:19;;;;;;;2.58;0.93;;;15.10;91.90;;;;;;5069738;28;20025;-73
2022/05/21 01:01:35;;;;;;;1.50;1.00;;;15.00;92.00;;;;;;5066251;28;20580;-72
2022/05/21 01:04:02;;;;;;;0.88;0.75;;;14.90;92.20;;;;;;5050121;28;20501;-72
2022/05/21 01:06:29;;;;;;;1.73;1.05;;;14.90;92.10;;;;;;5055295;28;20040;-73
2022/05/21 01:08:55;;;;;;;1.88;1.13;;;14.80;92.30;;;;;;5056482;28;20044;-72
2022/05/21 01:11:22;;;;;;;1.40;1.00;;;14.70;92.20;;;;;;5068645;28;20096;-72
2022/05/21 01:13:51;;;;;;;1.30;0.98;;;14.70;92.30;;;;;;5046283;28;20041;-73
2022/05/21 01:16:17;;;;;;;1.33;0.95;;;14.60;92.30;;;;;;5074184;28;20028;-72
2022/05/21 01:18:44;;;;;;;2.75;1.55;;;14.50;92.40;;;;;;5038398;28;20036;-73
2022/05/21 01:21:11;;;;;;;2.17;1.30;;;14.50;92.60;;;;;;5066277;28;20048;-72
2022/05/21 01:23:37;;;;;;;0.60;0.60;;;14.40;92.80;;;;;;5076887;28;20464;-73
2022/05/21 01:26:07;;;;;;;1.02;0.90;;;14.30;92.90;;;;;;5078332;28;20024;-72
2022/05/21 01:28:37;;;;;;;1.77;1.40;;;14.30;93.10;;;;;;5074933;28;20037;-71
2022/05/21 01:31:04;;;;;;;1.35;1.00;;;14.30;93.20;;;;;;5074511;28;20032;-73
2022/05/21 01:33:39;;;;;;;1.38;1.27;;;14.20;93.30;;;;;;5072820;28;20032;-73
2022/05/21 01:36:07;;;;;;;4.57;1.50;;;14.20;93.70;;;;;;5074465;28;20036;-74
2022/05/21 01:38:36;;;;;;;1.20;0.90;;;14.10;93.80;;;;;;5066874;28;20048;-74
2022/05/21 01:41:03;;;;;;;1.83;1.35;;;14.00;93.90;;;;;;5061052;28;20057;-73
2022/05/21 01:46:16;;;;;;;1.45;0.95;;;14.00;94.30;;;;;;5070966;28;20059;-72
2022/05/21 01:48:43;;;;;;;2.03;0.77;;;13.90;94.70;;;;;;5067164;28;20045;-73
2022/05/21 01:51:09;;;;;;;1.15;1.08;;;13.80;95.00;;;;;;5070225;28;20049;-72
2022/05/21 01:53:37;;;;;;;2.20;1.75;;;13.80;95.00;;;;;;5072714;28;20036;-73
2022/05/21 01:56:04;;;;;;;1.23;0.98;;;13.70;95.30;;;;;;5071986;28;20389;-73
2022/05/21 01:58:31;;;;;;;1.40;1.08;;;13.70;95.60;;;;;;5071107;28;20465;-74
2022/05/21 02:00:58;;;;;;;3.05;1.08;;;13.60;95.60;;;;;;5066057;28;20041;-73
2022/05/21 02:03:25;;;;;;;1.35;1.05;;;13.50;96.60;;;;;;5070122;28;20500;-73
2022/05/21 02:05:52;;;;;;;1.65;1.17;;;13.50;96.40;;;;;;5053801;28;20492;-73
2022/05/21 02:08:19;;;;;;;1.67;1.17;;;13.50;96.70;;;;;;5066129;28;20036;-73
2022/05/21 02:10:46;;;;;;;1.67;1.05;;;13.20;97.40;;;;;;5079424;28;20071;-73
2022/05/21 02:13:18;;;;;;;1.63;1.13;;;13.00;98.30;;;;;;5106928;28;20046;-71
2022/05/21 02:15:45;;;;;;;1.65;1.25;;;12.90;99.20;;;;;;5086242;28;20051;-73
2022/05/21 02:18:12;;;;;;;1.25;1.10;;;12.70;99.90;;;;;;5091650;28;20028;-73
2022/05/21 02:20:39;;;;;;;2.03;1.00;;;12.60;99.90;;;;;;5087708;28;20043;-73
2022/05/21 02:23:05;;;;;;;2.28;1.50;;;12.60;99.90;;;;;;5086976;28;20028;-73
2022/05/21 02:25:32;;;;;;;1.38;1.08;;;12.50;99.90;;;;;;5093729;28;20032;-73
2022/05/21 02:27:58;;;;;;;2.33;1.15;;;12.50;99.90;;;;;;5088700;28;20032;-71
2022/05/21 02:30:24;;;;;;;1.90;1.08;;;12.40;99.90;;;;;;5087750;28;20039;-71
2022/05/21 02:32:50;;;;;;;7.82;1.45;;;12.40;99.90;;;;;;5091298;28;20032;-71
2022/05/21 02:35:17;;;;;;;1.88;1.45;;;12.50;99.90;;;;;;5088442;28;20384;-72
2022/05/21 02:40:30;;;;;;;2.03;1.02;;;12.50;99.90;;;;;;5094165;28;20032;-72
2022/05/21 02:42:57;;;;;;;1.40;1.15;;;12.50;99.90;;;;;;5095788;28;20099;-72
2022/05/21 02:45:26;;;;;;;1.48;1.17;;;12.40;99.90;;;;;;5087913;28;20039;-72
2022/05/21 02:47:54;;;;;;;1.58;1.10;;;12.30;99.90;;;;;;5090159;28;20429;-73
2022/05/21 02:50:24;;;;;;;4.55;1.98;;;12.40;99.90;;;;;;5091884;28;20035;-72
2022/05/21 02:52:50;;;;;;;3.65;2.25;;;12.50;99.90;;;;;;5094963;28;20036;-73
2022/05/21 02:55:17;;;;;;;2.88;2.60;;;12.70;99.90;;;;;;5092957;28;20039;-73
2022/05/21 02:57:45;;;;;;;2.53;1.50;;;12.80;99.90;;;;;;5090146;28;20035;-73
2022/05/21 03:00:19;;;;;;;1.60;1.30;;;13.00;99.90;;;;;;5096575;28;20036;-73
2022/05/21 03:02:45;;;;;;;2.25;1.73;;;13.10;99.90;;;;;;5076380;28;20048;-73
2022/05/21 03:05:12;;;;;;;2.45;1.35;;;13.10;99.90;;;;;;5087803;28;20032;-73
2022/05/21 03:07:41;;;;;;;2.50;1.50;;;13.10;99.90;;;;;;5087665;28;20028;-73
2022/05/21 03:10:23;;;;;;;1.05;0.90;;;13.20;99.90;;;;;;5088405;28;20044;-73
2022/05/21 03:12:52;;;;;;;1.80;1.33;;;13.20;99.50;;;;;;5059870;28;20040;-73
2022/05/21 03:15:21;;;;;;;1.50;1.40;;;13.40;98.80;;;;;;5075665;28;20025;-73
2022/05/21 03:17:47;;;;;;;1.88;1.10;;;13.40;98.20;;;;;;5074273;28;20028;-72
2022/05/21 03:20:16;;;;;;;1.55;1.10;;;13.50;98.00;;;;;;5075602;28;20462;-72
2022/05/21 03:22:42;;;;;;;6.70;1.60;;;13.50;97.80;;;;;;5068478;28;20051;-72
2022/05/21 03:25:11;;;;;;;1.15;0.90;;;13.50;98.20;;;;;;5069724;28;20028;-72
2022/05/21 03:27:38;;;;;;;1.70;1.15;;;13.40;97.50;;;;;;5074265;28;20035;-73
2022/05/21 03:30:07;;;;;;;3.47;1.08;;;13.50;97.30;;;;;;5072613;28;20032;-72
2022/05/21 03:32:35;;;;;;;2.47;1.55;;;13.40;97.30;;;;;;5057238;28;20044;-72
2022/05/21 03:35:01;;;;;;;2.03;1.35;;;13.40;97.20;;;;;;5071462;28;20485;-72
2022/05/21 03:37:28;;;;;;;0.93;0.80;;;13.40;96.40;;;;;;5050698;28;20462;-73
2022/05/21 03:39:54;;;;;;;1.55;0.90;;;13.50;96.10;;;;;;5075275;28;20025;-72
2022/05/21 03:42:20;;;;;;;1.00;0.65;;;13.50;96.00;;;;;;5069098;28;20036;-73
2022/05/21 03:44:46;;;;;;;1.88;0.75;;;13.50;96.00;;;;;;5071284;28;20029;-72
2022/05/21 03:47:14;;;;;;;0.68;0.60;;;13.50;95.90;;;;;;5073495;28;20040;-73
2022/05/21 03:49:40;;;;;;;0.80;0.80;;;13.40;96.00;;;;;;5068639;28;20032;-73
2022/05/21 03:52:07;;;;;;;0.60;0.60;;;13.40;96.20;;;;;;5053538;28;20041;-73
2022/05/21 03:54:34;;;;;;;1.25;0.68;;;13.30;96.60;;;;;;5074789;28;20037;-72
2022/05/21 03:57:00;;;;;;;1.02;0.85;;;13.30;96.60;;;;;;5074052;28;20028;-72
2022/05/21 03:59:26;;;;;;;1.67;1.10;;;13.20;96.80;;;;;;5075691;28;20147;-72
2022/05/21 04:01:53;;;;;;;1.83;0.95;;;13.10;97.10;;;;;;5068206;28;20044;-73
2022/05/21 04:04:19;;;;;;;0.93;0.85;;;13.10;97.50;;;;;;5073746;28;20458;-73
2022/05/21 04:06:45;;;;;;;1.77;1.10;;;13.00;98.30;;;;;;5069538;28;20040;-74
2022/05/21 04:09:11;;;;;;;1.65;0.45;;;12.90;98.70;;;;;;5072957;28;20040;-73
2022/05/21 04:11:38;;;;;;;1.33;0.88;;;12.80;99.30;;;;;;5070897;28;20052;-73
2022/05/21 04:14:04;;;;;;;0.80;0.80;;;12.70;99.90;;;;;;5056696;28;20048;-73
2022/05/21 04:16:30;;;;;;;1.70;1.33;;;12.70;99.90;;;;;;5074841;28;20036;-73
2022/05/21 04:18:56;;;;;;;1.73;1.10;;;12.80;99.90;;;;;;5074876;28;20033;-73
2022/05/21 04:21:23;;;;;;;1.48;1.10;;;12.80;99.90;;;;;;5073669;28;20040;-73
2022/05/21 04:23:49;;;;;;;0.80;0.75;;;13.00;99.90;;;;;;5072848;28;20382;-74
2022/05/21 04:26:16;;;;;;;2.45;1.13;;;13.10;99.90;;;;;;5062782;28;20043;-73
2022/05/21 04:28:42;;;;;;;1.30;1.20;;;13.30;99.80;;;;;;5057753;28;20382;-74
2022/05/21 04:31:08;;;;;;;1.63;1.02;;;13.90;98.20;;;;;;5076831;28;20037;-74
2022/05/21 04:33:34;;;;;;;0.80;0.80;;;14.70;95.90;;;;;;5069811;28;20406;-74
2022/05/21 04:36:19;;;;;;;1.00;0.90;;;15.40;94.00;;;;;;5074133;28;20032;-73
2022/05/21 04:38:47;;;;;;;1.15;0.80;;;15.90;91.80;;;;;;5076579;28;20036;-75
2022/05/21 04:41:13;;;;;;;1.05;0.68;;;16.70;90.00;;;;;;5069681;28;20385;-74
2022/05/21 04:43:40;;;;;;;0.93;0.88;;;17.00;86.30;;;;;;5073122;28;20028;-74
2022/05/21 04:46:07;;;;;;;3.35;1.35;;;17.20;85.00;;;;;;5066975;28;20033;-74
2022/05/21 04:48:33;;;;;;;4.53;1.38;;;17.80;81.40;;;;;;5074172;28;20055;-74
2022/05/21 04:51:02;;;;;;;1.05;0.68;;;17.90;78.40;;;;;;5068031;28;20278;-76
2022/05/21 04:53:29;;;;;;;0.50;0.50;;;17.80;77.20;;;;;;5067088;28;20047;-75
2022/05/21 04:55:55;;;;;;;1.85;0.73;;;17.20;79.10;;;;;;5066136;28;20371;-76
2022/05/21 04:58:21;;;;;;;1.48;0.93;;;17.90;79.60;;;;;;5069059;28;20036;-75
2022/05/21 05:00:47;;;;;;;0.43;0.40;;;18.60;71.70;;;;;;5071478;28;20028;-75
2022/05/21 05:03:16;;;;;;;0.50;0.50;;;18.70;70.60;;;;;;5065612;28;20045;-76
2022/05/21 05:05:44;;;;;;;1.42;0.77;;;18.90;69.60;;;;;;5053043;28;20037;-73
2022/05/21 05:08:12;;;;;;;0.82;0.60;;;17.90;71.30;;;;;;5070809;28;20036;-73
2022/05/21 05:10:38;;;;;;;0.68;0.60;;;17.70;74.60;;;;;;5071215;28;20033;-73
2022/05/21 05:13:05;;;;;;;4.53;0.73;;;18.70;70.50;;;;;;5063039;28;20052;-73
2022/05/21 05:15:32;;;;;;;1.42;0.70;;;18.70;70.80;;;;;;5068230;28;20032;-74
2022/05/21 05:18:10;;;;;;;1.92;1.30;;;19.60;68.50;;;;;;5064702;28;20037;-73
2022/05/21 05:20:37;;;;;;;1.40;0.80;;;20.30;69.00;;;;;;5069130;28;20036;-73
2022/05/21 05:23:05;;;;;;;1.67;1.05;;;20.90;64.10;;;;;;5068737;28;20039;-73
2022/05/21 05:25:32;;;;;;;1.30;0.77;;;19.40;63.70;;;;;;5067262;28;20029;-73
2022/05/21 05:28:01;;;;;;;2.15;1.10;;;19.70;66.50;;;;;;5067316;28;20036;-73
2022/05/21 05:30:27;;;;;;;1.35;0.65;;;20.40;62.50;;;;;;5059367;28;20043;-73
2022/05/21 05:32:53;;;;;;;0.68;0.68;;;20.30;62.10;;;;;;5046778;28;20048;-72
2022/05/21 05:35:20;;;;;;;3.00;1.23;;;20.10;63.60;;;;;;5071460;28;20036;-73
2022/05/21 05:37:46;;;;;;;2.15;1.88;;;20.70;61.00;;;;;;5051571;28;20047;-73
2022/05/21 05:40:19;;;;;;;3.33;1.80;;;20.10;62.00;;;;;;5085843;28;20033;-73
2022/05/21 05:42:45;;;;;;;1.60;1.08;;;20.10;61.90;;;;;;5082356;28;20048;-73
2022/05/21 05:45:13;;;;;;;2.85;1.27;;;19.70;63.70;;;;;;5069229;28;20056;-73
2022/05/21 05:47:39;;;;;;;0.77;0.75;;;20.00;63.10;;;;;;5063882;28;20039;-73
2022/05/21 05:50:06;;;;;;;2.92;2.05;;;18.80;64.90;;;;;;5064199;28;20032;-72
2022/05/21 05:52:32;;;;;;;9.48;2.28;;;17.80;67.40;;;;;;5071974;28;20047;-73
2022/05/21 05:54:59;;;;;;;3.10;2.28;;;18.50;66.50;;;;;;5072151;28;20043;-73
2022/05/21 05:57:25;;;;;;;2.47;1.73;;;18.40;69.70;;;;;;5067711;28;20036;-73
2022/05/21 05:59:51;;;;;;;2.40;0.80;;;19.10;68.00;;;;;;5065859;28;20033;-72
2022/05/21 06:05:19;;;;;;;6.78;4.45;;;20.00;61.10;;;;;;5069372;28;20033;-73
2022/05/21 06:07:50;;;;;;;1.92;1.65;;;19.00;65.60;;;;;;5069977;28;20032;-72
2022/05/21 06:10:25;;;;;;;2.40;1.15;;;18.50;64.90;;;;;;5060669;28;20041;-72
2022/05/21 06:12:52;;;;;;;2.30;1.35;;;18.10;67.30;;;;;;5068364;28;20043;-73
2022/05/21 06:15:18;;;;;;;0.93;0.70;;;18.60;66.00;;;;;;5068405;28;20032;-73
2022/05/21 06:17:45;;;;;;;1.85;1.10;;;18.80;67.90;;;;;;5068913;28;20041;-73
2022/05/21 06:20:14;;;;;;;2.67;1.55;;;18.30;67.30;;;;;;5071758;28;20028;-72
2022/05/21 06:22:42;;;;;;;4.25;0.88;;;18.00;68.90;;;;;;5065340;28;20033;-73
2022/05/21 06:25:10;;;;;;;0.57;0.50;;;18.70;66.60;;;;;;5071291;28;20024;-73
2022/05/21 06:27:38;;;;;;;4.43;0.85;;;18.90;65.60;;;;;;5066747;28;20049;-72
2022/05/21 06:30:05;;;;;;;1.70;1.08;;;18.90;65.70;;;;;;5067461;28;20037;-72
2022/05/21 06:32:31;;;;;;;3.70;1.23;;;18.90;64.70;;;;;;5072024;28;20051;-73
2022/05/21 06:34:57;;;;;;;4.13;1.83;;;17.70;66.90;;;;;;5064814;28;20033;-71
2022/05/21 06:37:23;;;;;;;1.13;0.95;;;17.60;70.00;;;;;;5067385;28;20055;-72
2022/05/21 06:39:49;;;;;;;3.35;1.35;;;17.50;67.80;;;;;;5066319;28;20040;-73
2022/05/21 06:42:16;;;;;;;7.60;1.85;;;17.30;68.70;;;;;;5050886;28;20494;-72
2022/05/21 06:44:44;;;;;;;1.38;0.77;;;17.30;70.70;;;;;;5052314;28;20036;-73
2022/05/21 06:47:10;;;;;;;1.85;0.93;;;17.00;70.40;;;;;;5067126;28;20469;-72
2022/05/21 06:49:37;;;;;;;1.10;0.65;;;17.40;71.30;;;;;;5069209;28;20398;-73
2022/05/21 06:52:04;;;;;;;3.03;1.42;;;18.20;69.00;;;;;;5063237;28;20040;-73
2022/05/21 06:54:30;;;;;;;1.70;0.43;;;17.90;69.20;;;;;;5068646;28;20040;-73
2022/05/21 06:56:56;;;;;;;1.50;0.77;;;17.50;71.70;;;;;;5069880;28;20036;-72
2022/05/21 06:59:25;;;;;;;1.35;0.85;;;17.50;71.20;;;;;;5072122;28;20024;-72
2022/05/21 07:01:51;;;;;;;1.73;0.88;;;17.80;70.40;;;;;;5070810;28;20044;-73
2022/05/21 07:07:32;;;;;;;6.28;1.90;;;18.20;68.50;;;;;;5069394;28;20032;-73
2022/05/21 07:09:49;;;;;;;2.17;0.80;;;17.70;69.10;;;;;;5067826;28;20389;-73
2022/05/21 07:12:15;;;;;;;1.55;0.98;;;17.90;68.70;;;;;;5071310;28;20041;-73
2022/05/21 07:14:41;;;;;;;3.65;2.25;;;18.50;68.40;;;;;;5069345;28;20032;-73
2022/05/21 07:17:08;;;;;;;2.28;1.77;;;18.60;65.90;;;;;;5071918;28;20039;-73
2022/05/21 07:19:35;;;;;;;3.42;1.00;;;17.60;67.30;;;;;;5075193;28;20068;-72
2022/05/21 07:22:05;;;;;;;1.95;1.05;;;17.60;67.80;;;;;;5068728;28;20130;-73
2022/05/21 07:24:31;;;;;;;0.60;0.47;;;17.40;69.30;;;;;;5066023;28;20028;-73
2022/05/21 07:26:57;;;;;;;2.38;0.90;;;17.50;69.50;;;;;;5071379;28;20041;-73
2022/05/21 07:29:23;;;;;;;1.02;0.60;;;17.20;71.80;;;;;;5069702;28;20056;-74
2022/05/21 07:31:50;;;;;;;1.10;0.70;;;17.00;72.90;;;;;;5074566;28;20028;-73
2022/05/21 07:34:16;;;;;;;2.33;1.33;;;17.10;72.60;;;;;;5070329;28;20029;-73
2022/05/21 07:36:42;;;;;;;6.38;1.42;;;17.20;71.40;;;;;;5066823;28;20032;-73
2022/05/21 07:39:08;;;;;;;4.55;1.25;;;16.90;73.40;;;;;;5072631;28;20040;-73
2022/05/21 07:41:35;;;;;;;3.80;1.73;;;17.20;70.60;;;;;;5074366;28;20024;-73
2022/05/21 07:44:04;;;;;;;4.70;1.02;;;17.10;71.70;;;;;;5070098;28;20032;-72
2022/05/21 07:46:30;;;;;;;5.35;1.48;;;17.00;71.60;;;;;;5052813;28;20068;-73
2022/05/21 07:48:56;;;;;;;6.82;1.80;;;16.90;72.20;;;;;;5069504;28;20032;-75
2022/05/21 07:51:23;;;;;;;5.78;1.67;;;16.80;71.70;;;;;;5074341;28;20424;-74
2022/05/21 07:53:49;;;;;;;4.90;2.30;;;16.50;71.50;;;;;;5069421;28;20036;-74
2022/05/21 07:56:15;;;;;;;2.50;1.77;;;16.50;72.40;;;;;;5049367;28;20398;-75
2022/05/21 07:58:42;;;;;;;5.30;1.88;;;16.90;72.00;;;;;;5070047;28;20029;-76
2022/05/21 08:01:10;;;;;;;1.52;1.13;;;17.10;72.30;;;;;;5071051;28;20047;-74
2022/05/21 08:03:36;;;;;;;1.48;0.90;;;17.40;71.60;;;;;;5069520;28;20044;-74
2022/05/21 08:06:02;;;;;;;1.17;0.80;;;17.30;70.90;;;;;;5072841;28;20024;-74
2022/05/21 08:08:29;;;;;;;1.58;0.70;;;17.00;71.20;;;;;;5072803;28;20033;-75
2022/05/21 08:10:55;;;;;;;0.90;0.52;;;17.00;71.90;;;;;;5070557;28;20040;-74
2022/05/21 08:13:21;;;;;;;1.40;0.85;;;16.90;71.70;;;;;;5056498;28;20496;-75
2022/05/21 08:15:48;;;;;;;4.07;0.70;;;16.90;72.20;;;;;;5068861;28;20041;-75
2022/05/21 08:18:15;;;;;;;0.95;0.63;;;17.30;71.70;;;;;;5072912;28;20055;-75
2022/05/21 08:20:41;;;;;;;2.33;1.73;;;17.70;70.60;;;;;;5069527;28;20033;-75
2022/05/21 08:28:46;;;;;;;1.13;0.70;;;17.20;71.20;;;;;;5074510;28;20063;-74
2022/05/21 08:31:13;;;;;;;2.00;0.90;;;17.10;70.20;;;;;;5069857;28;20484;-76
2022/05/21 08:33:39;;;;;;;1.33;0.80;;;17.30;72.00;;;;;;5074008;28;20029;-75
2022/05/21 08:36:05;;;;;;;0.50;0.50;;;17.90;68.50;;;;;;5066963;28;20039;-76
2022/05/21 08:38:32;;;;;;;2.83;0.90;;;19.40;65.70;;;;;;5071592;28;20040;-75
2022/05/21 08:41:17;;;;;;;0.63;0.60;;;19.70;62.40;;;;;;5073665;28;20089;-75
2022/05/21 08:44:01;;;;;;;0.88;0.50;;;20.70;61.00;;;;;;5051152;28;20044;-76
2022/05/21 08:47:04;;;;;;;1.27;0.70;;;20.60;62.00;;;;;;5070804;28;20029;-76
2022/05/21 08:49:38;;;;;;;0.77;0.70;;;20.50;59.30;;;;;;5063781;28;20044;-75
2022/05/21 08:52:18;;;;;;;0.60;0.50;;;20.70;58.80;;;;;;5072074;28;20056;-75
2022/05/21 08:54:48;;;;;;;2.53;0.50;;;20.90;57.90;;;;;;5071003;28;20032;-76
2022/05/21 08:57:35;;;;;;;2.10;1.03;;;21.70;56.70;;;;;;5074174;28;20043;-75
2022/05/21 09:00:09;;;;;;;2.22;1.13;;;21.30;56.60;;;;;;5074280;28;20021;-76
2022/05/21 09:02:36;;;;;;;1.25;0.85;;;20.00;58.70;;;;;;5062865;28;20044;-76
2022/05/21 09:05:06;;;;;;;0.80;0.60;;;19.10;60.70;;;;;;5065074;28;20029;-76
2022/05/21 09:08:02;;;;;;;0.70;0.45;;;18.70;61.30;;;;;;5066730;28;20032;-75
2022/05/21 09:10:53;;;;;;;5.07;0.70;;;18.70;62.00;;;;;;5066204;28;20051;-76
2022/05/21 09:13:44;;;;;;;0.70;0.57;;;19.00;62.10;;;;;;5071934;28;20028;-76
2022/05/21 09:18:57;;;;;;;0.80;0.77;;;19.40;61.00;;;;;;5068063;28;20496;-76
2022/05/21 09:21:26;;;;;;;1.48;1.00;;;20.40;58.40;;;;;;5072252;28;20056;-76
2022/05/21 09:24:01;;;;;;;1.10;0.70;;;19.70;59.90;;;;;;5068375;28;20036;-76
2022/05/21 09:26:49;;;;;;;0.95;0.75;;;19.40;60.50;;;;;;5064449;28;20442;-76
2022/05/21 09:29:20;;;;;;;2.03;0.70;;;19.00;61.10;;;;;;5064532;28;20040;-76
2022/05/21 09:31:46;;;;;;;1.08;0.73;;;19.20;60.80;;;;;;5063346;28;20457;-76
2022/05/21 09:34:26;;;;;;;2.05;0.85;;;18.90;61.40;;;;;;5071503;28;20049;-75
2022/05/21 09:36:53;;;;;;;6.43;1.05;;;18.90;62.20;;;;;;5070864;28;20037;-76
2022/05/21 09:39:38;;;;;;;2.25;1.00;;;19.80;60.30;;;;;;5065352;28;20047;-76
2022/05/21 09:45:22;;;;;;;2.20;0.70;;;20.00;59.20;;;;;;5070190;28;20048;-76
2022/05/21 09:47:50;;;;;;;2.45;0.90;;;20.60;57.70;;;;;;5069137;28;20035;-76
2022/05/21 09:50:24;;;;;;;1.08;0.50;;;20.40;58.00;;;;;;5070517;28;20034;-76
2022/05/21 09:52:51;;;;;;;1.05;0.73;;;20.20;58.10;;;;;;5036349;28;20051;-76
2022/05/21 09:55:26;;;;;;;1.08;0.60;;;20.40;59.30;;;;;;5050153;28;20044;-77
2022/05/21 09:57:54;;;;;;;3.50;0.82;;;19.80;59.00;;;;;;5069535;28;20466;-76
2022/05/21 10:00:32;;;;;;;1.52;0.60;;;19.80;57.40;;;;;;5037812;28;20482;-75
2022/05/21 10:03:04;;;;;;;0.55;0.40;;;20.00;57.60;;;;;;5060361;28;20485;-76
2022/05/21 10:05:50;;;;;;;1.48;0.85;;;20.00;56.50;;;;;;5066898;28;20556;-75
2022/05/21 10:11:15;;;;;;;1.10;0.70;;;20.10;56.80;;;;;;5066428;28;20041;-75
2022/05/21 10:13:47;;;;;;;3.33;1.48;;;19.90;56.60;;;;;;5069933;28;20044;-75
2022/05/21 10:16:38;;;;;;;0.63;0.50;;;20.30;56.50;;;;;;5070633;28;20036;-75
2022/05/21 10:19:42;;;;;;;1.42;0.75;;;20.00;56.30;;;;;;5065697;28;20485;-76
2022/05/21 10:22:47;;;;;;;0.90;0.50;;;20.20;56.70;;;;;;5065921;28;20033;-75
2022/05/21 10:25:20;;;;;;;0.50;0.50;;;20.70;56.50;;;;;;5058854;28;20045;-75
2022/05/21 10:28:03;;;;;;;1.35;0.60;;;20.80;54.20;;;;;;5066292;28;20041;-74
2022/05/21 10:30:53;;;;;;;1.35;1.20;;;20.70;57.40;;;;;;5068669;28;20028;-74
2022/05/21 10:33:44;;;;;;;1.60;0.65;;;20.90;53.80;;;;;;5068067;28;20029;-75
2022/05/21 10:36:28;;;;;;;0.73;0.40;;;21.20;54.90;;;;;;5060060;28;20473;-76
2022/05/21 10:39:03;;;;;;;2.17;0.95;;;21.50;53.40;;;;;;5069851;28;20492;-76
2022/05/21 10:41:47;;;;;;;0.70;0.50;;;21.50;54.00;;;;;;5071401;28;20029;-76
2022/05/21 10:44:28;;;;;;;0.50;0.50;;;21.10;53.40;;;;;;5049960;28;20041;-75
2022/05/21 10:47:04;;;;;;;;;;;20.60;55.20;;;;;;5062756;28;20438;-75
2022/05/21 10:49:42;;;;;;;0.95;0.68;;;20.70;55.80;;;;;;5066578;28;20288;-76
2022/05/21 10:52:15;;;;;;;1.85;1.10;;;20.90;54.60;;;;;;5033560;28;20044;-74
2022/05/21 10:55:02;;;;;;;1.95;0.75;;;20.60;54.20;;;;;;5066675;28;20572;-74
2022/05/21 10:57:57;;;;;;;2.30;0.95;;;20.70;53.90;;;;;;5053451;28;20033;-77
2022/05/21 11:00:40;;;;;;;0.90;0.55;;;20.70;53.90;;;;;;5066733;28;20028;-75
2022/05/21 11:03:38;;;;;;;0.93;0.40;;;20.90;52.90;;;;;;5071644;28;20032;-76
2022/05/21 11:06:36;;;;;;;0.57;0.40;;;20.80;53.10;;;;;;5055099;28;20044;-76
2022/05/21 11:09:40;;;;;;;1.15;0.60;;;20.70;54.20;;;;;;5004949;28;20051;-77
2022/05/21 11:12:26;;;;;;;1.25;0.77;;;21.00;54.30;;;;;;5070645;28;20049;-76
2022/05/21 11:14:59;;;;;;;3.80;1.90;;;21.00;54.00;;;;;;5039164;28;20040;-76
2022/05/21 11:17:40;;;;;;;4.10;0.95;;;20.90;53.00;;;;;;5066698;28;20028;-77
2022/05/21 11:20:18;;;;;;;2.45;0.80;;;20.70;53.90;;;;;;5074153;28;20033;-76
2022/05/21 11:22:59;;;;;;;0.80;0.40;;;21.00;54.50;;;;;;5075427;28;20374;-76
2022/05/21 11:25:52;;;;;;;6.18;1.23;;;20.90;53.80;;;;;;5066293;28;20048;-75
2022/05/21 11:28:37;;;;;;;1.42;0.70;;;20.90;53.80;;;;;;5071130;28;20052;-76
2022/05/21 11:37:19;;;;;;;1.10;0.55;;;21.00;53.60;;;;;;5068851;28;20044;-75
2022/05/21 11:39:40;;;;;;;2.13;0.70;;;21.40;52.40;;;;;;5062726;28;20386;-75
2022/05/21 11:42:06;;;;;;;1.23;0.65;;;21.10;53.00;;;;;;5071068;28;20028;-74
2022/05/21 11:45:03;;;;;;;4.30;0.70;;;21.00;53.10;;;;;;5072469;28;20040;-75
2022/05/21 11:47:36;;;;;;;1.33;0.63;;;21.00;54.20;;;;;;5052170;28;20622;-76
2022/05/21 11:50:03;;;;;;;1.13;0.50;;;22.00;53.00;;;;;;5071854;28;20032;-76
2022/05/21 11:52:35;;;;;;;1.58;0.65;;;21.90;50.90;;;;;;5070517;28;20033;-76
2022/05/21 11:55:07;;;;;;;2.22;0.70;;;21.50;51.40;;;;;;5073286;28;20029;-76
2022/05/21 11:57:44;;;;;;;0.95;0.50;;;21.40;52.10;;;;;;5068192;28;20048;-77
2022/05/21 12:00:22;;;;;;;0.90;0.60;;;21.40;52.20;;;;;;5068663;28;20036;-76
2022/05/21 12:02:54;;;;;;;2.08;0.55;;;21.20;53.20;;;;;;5067910;28;20523;-76
2022/05/21 12:05:40;;;;;;;1.38;0.80;;;21.20;52.90;;;;;;5072818;28;20025;-77
2022/05/21 12:08:22;;;;;;;1.85;0.57;;;20.90;53.20;;;;;;5051691;28;20397;-77
2022/05/21 12:10:57;;;;;;;0.50;0.43;;;20.90;52.80;;;;;;5072851;28;20040;-77
2022/05/21 12:13:35;;;;;;;1.90;0.65;;;20.90;52.90;;;;;;5064403;28;20051;-76
2022/05/21 12:16:22;;;;;;;0.30;0.30;;;20.90;53.60;;;;;;5069969;28;20366;-77
2022/05/21 12:18:56;;;;;;;1.45;0.60;;;21.00;52.90;;;;;;5068850;28;20029;-77
2022/05/21 12:21:36;;;;;;;0.93;0.52;;;21.10;52.60;;;;;;5055470;28;20041;-76
2022/05/21 12:24:09;;;;;;;2.17;0.73;;;21.50;52.50;;;;;;5067555;28;20048;-77
2022/05/21 12:26:43;;;;;;;1.92;0.45;;;21.40;52.50;;;;;;5072764;28;20032;-77
2022/05/21 12:29:28;;;;;;;1.10;0.70;;;21.30;51.90;;;;;;5069783;28;20469;-76
2022/05/21 12:31:59;;;;;;;3.60;0.57;;;21.70;51.80;;;;;;5069380;28;20033;-76
2022/05/21 12:34:33;;;;;;;1.30;0.57;;;22.50;52.10;;;;;;5074542;28;20037;-76
2022/05/21 12:37:16;;;;;;;2.60;0.90;;;22.60;52.10;;;;;;5073817;28;20039;-78
2022/05/21 12:40:09;;;;;;;5.20;0.98;;;22.70;50.20;;;;;;5064451;28;20025;-76
2022/05/21 12:42:47;;;;;;;0.82;0.55;;;22.60;50.60;;;;;;5061428;28;20339;-75
2022/05/21 12:45:45;;;;;;;1.23;0.55;;;22.30;50.50;;;;;;5063787;28;20029;-76
2022/05/21 12:48:25;;;;;;;1.70;0.65;;;22.30;50.20;;;;;;5054535;28;20047;-75
2022/05/21 12:51:04;;;;;;;1.35;0.85;;;22.30;49.90;;;;;;5071761;28;20037;-75
2022/05/21 12:53:44;;;;;;;1.10;0.60;;;21.80;51.10;;;;;;5052108;28;20036;-75
2022/05/21 12:56:29;;;;;;;1.35;0.60;;;22.00;49.80;;;;;;5068717;28;20032;-75
2022/05/21 12:59:16;;;;;;;1.55;0.63;;;21.80;50.70;;;;;;5073347;28;20044;-76
2022/05/21 13:01:56;;;;;;;0.38;0.38;;;21.80;51.00;;;;;;5073483;28;20469;-77
2022/05/21 13:04:31;;;;;;;1.30;0.70;;;21.90;51.10;;;;;;5063953;28;20048;-78
2022/05/21 13:07:22;;;;;;;5.25;1.35;;;22.10;50.30;;;;;;5054045;28;20051;-77
2022/05/21 13:10:15;;;;;;;0.30;0.30;;;21.80;52.00;;;;;;5059187;28;20043;-78
2022/05/21 13:12:46;;;;;;;1.95;0.55;;;22.10;51.30;;;;;;5081495;28;20037;-76
2022/05/21 13:15:23;;;;;;;0.90;0.68;;;22.80;51.90;;;;;;5078300;28;20381;-76
2022/05/21 13:18:00;;;;;;;0.68;0.40;;;23.10;49.30;;;;;;5074790;28;20032;-77
2022/05/21 13:21:04;;;;;;;3.17;0.68;;;22.70;49.80;;;;;;5066330;28;20039;-78
2022/05/21 13:24:09;;;;;;;0.93;0.63;;;22.90;51.00;;;;;;5066149;28;20587;-79
2022/05/21 13:26:38;;;;;;;1.40;0.82;;;22.70;49.70;;;;;;5063383;28;20028;-77
2022/05/21 13:29:27;;;;;;;0.93;0.77;;;22.30;51.00;;;;;;5050988;28;20052;-79
2022/05/21 13:31:54;;;;;;;10.27;1.98;;;22.20;50.90;;;;;;5071217;28;20041;-79
2022/05/21 13:34:27;;;;;;;0.47;0.40;;;21.90;51.30;;;;;;5053048;28;20024;-75
2022/05/21 13:37:02;;;;;;;2.35;0.88;;;21.80;50.50;;;;;;5064075;28;20033;-75
2022/05/21 13:39:31;;;;;;;0.80;0.43;;;21.50;51.90;;;;;;5069479;28;20032;-76
2022/05/21 13:42:04;;;;;;;1.35;0.60;;;21.40;51.50;;;;;;5067619;28;20386;-74
2022/05/21 13:44:35;;;;;;;1.80;1.00;;;21.50;51.60;;;;;;5054190;28;20055;-78
2022/05/21 13:47:09;;;;;;;2.60;0.75;;;21.70;51.80;;;;;;5068658;28;20025;-76